Time;durP1;ratioP1;P1;durP2;ratioP2;P2;SDS_P1;SDS_P2;PMS_P1;PMS_P2;Temp;Humidity;BMP_temperature;BMP_pressure;BME280_temperature;BME280_humidity;BME280_pressure;Samples;Min_cycle;Max_cycle;Signal;HPM_P1;HPM_P2
2023/02/13 00:01:19;;;;;;;20.25;18.15;;;5.40;98.90;;;;;;5007007;28;20283;-73
2023/02/13 00:03:46;;;;;;;21.20;18.90;;;5.30;98.90;;;;;;5006190;28;20732;-73
2023/02/13 00:06:13;;;;;;;19.60;16.98;;;5.20;99.40;;;;;;5007256;28;20227;-73
2023/02/13 00:08:42;;;;;;;21.23;18.20;;;5.10;99.70;;;;;;5007667;28;20776;-73
2023/02/13 00:11:09;;;;;;;20.52;18.45;;;5.00;99.70;;;;;;5003143;28;20287;-73
2023/02/13 00:13:36;;;;;;;20.63;17.10;;;4.90;99.90;;;;;;5007016;28;20299;-72
2023/02/13 00:16:04;;;;;;;19.70;17.20;;;4.80;99.90;;;;;;5009512;28;20228;-72
2023/02/13 00:18:35;;;;;;;19.48;17.02;;;4.80;99.90;;;;;;5005289;28;20328;-72
2023/02/13 00:21:05;;;;;;;18.63;16.70;;;4.70;99.90;;;;;;5009184;28;20299;-73
2023/02/13 00:23:33;;;;;;;21.88;18.85;;;4.70;99.90;;;;;;5003503;28;20659;-72
2023/02/13 00:26:05;;;;;;;19.02;17.02;;;4.70;99.90;;;;;;5007483;28;20228;-72
2023/02/13 00:28:32;;;;;;;19.23;17.23;;;4.70;99.90;;;;;;5008385;28;20745;-72
2023/02/13 00:31:03;;;;;;;18.85;16.85;;;4.80;99.90;;;;;;5007516;28;20192;-72
2023/02/13 00:33:31;;;;;;;19.17;17.10;;;4.80;99.90;;;;;;5006238;28;20317;-72
2023/02/13 00:36:07;;;;;;;18.05;16.05;;;4.90;99.90;;;;;;5008679;28;20283;-72
2023/02/13 00:38:34;;;;;;;17.92;16.02;;;4.90;99.90;;;;;;5007064;28;20255;-72
2023/02/13 00:41:03;;;;;;;16.90;15.05;;;4.80;99.90;;;;;;5006178;28;20287;-72
2023/02/13 00:43:30;;;;;;;18.95;16.17;;;4.80;99.90;;;;;;5004529;28;20304;-72
2023/02/13 00:45:58;;;;;;;16.38;14.18;;;4.80;99.90;;;;;;5007956;28;20288;-72
2023/02/13 00:48:26;;;;;;;17.10;14.02;;;4.80;99.90;;;;;;5008603;28;20224;-73
2023/02/13 00:50:53;;;;;;;18.33;15.98;;;4.80;99.90;;;;;;5003521;28;20199;-72
2023/02/13 00:53:21;;;;;;;17.63;15.25;;;4.70;99.90;;;;;;5001953;28;20291;-71
2023/02/13 00:55:49;;;;;;;17.25;15.43;;;4.70;99.90;;;;;;4973100;28;20208;-72
2023/02/13 00:58:18;;;;;;;15.77;14.18;;;4.70;99.90;;;;;;5001325;28;20327;-71
2023/02/13 01:00:46;;;;;;;15.45;13.85;;;4.70;99.90;;;;;;5006560;28;20297;-71
2023/02/13 01:03:13;;;;;;;19.33;15.43;;;4.70;99.90;;;;;;4985880;28;20197;-72
2023/02/13 01:05:40;;;;;;;19.10;16.20;;;4.60;99.90;;;;;;5003397;28;20906;-74
2023/02/13 01:08:08;;;;;;;20.65;17.05;;;4.50;99.90;;;;;;4989982;28;20663;-74
2023/02/13 01:10:37;;;;;;;19.88;17.27;;;4.50;99.90;;;;;;4988210;28;20282;-73
2023/02/13 01:13:04;;;;;;;21.13;17.33;;;4.40;99.90;;;;;;4989418;28;20573;-73
2023/02/13 01:15:34;;;;;;;17.88;16.00;;;4.40;99.90;;;;;;5021970;28;20398;-73
2023/02/13 01:18:01;;;;;;;17.58;15.77;;;4.30;99.90;;;;;;5030669;28;20306;-73
2023/02/13 01:20:29;;;;;;;16.48;14.23;;;4.30;99.90;;;;;;5031213;28;20246;-74
2023/02/13 01:22:57;;;;;;;16.20;14.50;;;4.30;99.90;;;;;;5031470;28;20223;-73
2023/02/13 01:25:26;;;;;;;16.30;14.60;;;4.30;99.90;;;;;;5037359;28;20696;-73
2023/02/13 01:27:53;;;;;;;17.23;15.18;;;4.40;99.90;;;;;;5034509;28;20222;-73
2023/02/13 01:30:20;;;;;;;15.05;13.45;;;4.50;99.90;;;;;;5030377;28;20303;-72
2023/02/13 01:32:49;;;;;;;15.88;14.18;;;4.50;99.90;;;;;;5012510;28;20636;-73
2023/02/13 01:35:16;;;;;;;15.27;13.65;;;4.50;99.90;;;;;;5033295;28;20235;-73
2023/02/13 01:37:44;;;;;;;15.02;13.55;;;4.60;99.90;;;;;;5013097;28;20665;-74
2023/02/13 01:40:14;;;;;;;15.05;13.43;;;4.50;99.90;;;;;;5029546;28;20711;-73
2023/02/13 01:42:41;;;;;;;17.20;13.55;;;4.60;99.90;;;;;;5027993;28;20235;-73
2023/02/13 01:45:22;;;;;;;16.90;14.65;;;4.60;99.90;;;;;;5032480;28;20294;-73
2023/02/13 01:47:55;;;;;;;14.65;13.15;;;4.60;99.90;;;;;;5031980;28;20311;-73
2023/02/13 01:50:25;;;;;;;14.57;13.07;;;4.50;99.90;;;;;;5030627;28;20294;-73
2023/02/13 01:52:57;;;;;;;16.33;13.80;;;4.50;99.90;;;;;;5012442;28;20611;-73
2023/02/13 01:55:26;;;;;;;15.80;14.02;;;4.50;99.90;;;;;;5030493;28;20242;-73
2023/02/13 01:57:58;;;;;;;15.48;13.88;;;4.50;99.90;;;;;;5031365;28;20760;-72
2023/02/13 02:00:26;;;;;;;14.68;13.18;;;4.50;99.90;;;;;;5030016;28;20303;-73
2023/02/13 02:02:58;;;;;;;15.10;13.60;;;4.50;99.90;;;;;;5030622;28;20286;-73
2023/02/13 02:05:28;;;;;;;14.88;13.43;;;4.60;99.90;;;;;;5027408;28;20299;-73
2023/02/13 02:07:58;;;;;;;14.75;13.20;;;4.50;99.90;;;;;;5027679;28;20258;-73
2023/02/13 02:10:25;;;;;;;13.48;12.07;;;4.40;99.90;;;;;;5028932;28;20298;-73
2023/02/13 02:13:01;;;;;;;14.27;12.70;;;4.40;99.90;;;;;;5026338;28;20295;-73
2023/02/13 02:15:29;;;;;;;16.45;14.63;;;4.40;99.90;;;;;;5027781;28;20723;-72
2023/02/13 02:17:57;;;;;;;15.27;13.57;;;4.40;99.90;;;;;;4994899;28;20245;-73
2023/02/13 02:20:45;;;;;;;13.45;12.00;;;4.30;99.90;;;;;;5030859;28;20279;-73
2023/02/13 02:23:47;;;;;;;15.13;13.05;;;4.30;99.90;;;;;;5027886;28;20735;-73
2023/02/13 02:26:51;;;;;;;14.32;12.68;;;4.40;99.90;;;;;;5010788;28;20214;-73
2023/02/13 02:29:49;;;;;;;13.18;11.88;;;4.40;99.90;;;;;;5029510;28;20302;-75
2023/02/13 02:32:34;;;;;;;14.50;13.00;;;4.40;99.90;;;;;;5030783;28;20318;-74
2023/02/13 02:35:10;;;;;;;14.60;13.10;;;4.50;99.90;;;;;;5029416;28;20302;-74
2023/02/13 02:38:00;;;;;;;14.02;12.52;;;4.50;99.90;;;;;;5030230;28;20627;-74
2023/02/13 02:40:37;;;;;;;13.65;12.27;;;4.50;99.90;;;;;;5025606;28;20294;-74
2023/02/13 02:43:17;;;;;;;15.05;13.40;;;4.40;99.90;;;;;;5030336;28;20231;-73
2023/02/13 02:45:51;;;;;;;13.88;12.48;;;4.50;99.90;;;;;;5030290;28;20306;-73
2023/02/13 02:51:21;;;;;;;12.63;11.32;;;4.40;99.90;;;;;;5026691;28;20338;-71
2023/02/13 02:53:58;;;;;;;13.95;12.55;;;4.40;99.90;;;;;;5026948;28;20315;-72
2023/02/13 02:56:31;;;;;;;14.38;12.98;;;4.40;99.90;;;;;;5017324;28;20290;-72
2023/02/13 03:07:24;;;;;;;12.88;11.52;;;4.30;99.90;;;;;;5025768;28;20249;-73
2023/02/13 03:15:31;;;;;;;15.18;13.63;;;4.30;99.90;;;;;;5029001;28;20222;-73
2023/02/13 03:23:47;;;;;;;15.00;13.40;;;4.20;99.90;;;;;;5026299;28;20238;-73
2023/02/13 03:26:44;;;;;;;14.18;12.70;;;4.20;99.90;;;;;;5028340;28;20306;-73
2023/02/13 03:32:12;;;;;;;13.52;12.13;;;4.20;99.90;;;;;;5030031;28;20211;-73
2023/02/13 03:37:57;;;;;;;15.27;13.77;;;4.10;99.90;;;;;;5029018;28;20198;-72
2023/02/13 03:40:29;;;;;;;13.45;12.05;;;4.10;99.90;;;;;;5030920;28;20250;-72
2023/02/13 03:43:03;;;;;;;15.38;12.68;;;4.00;99.90;;;;;;5014933;28;20680;-72
2023/02/13 03:45:55;;;;;;;14.48;12.65;;;4.00;99.90;;;;;;5026874;28;20313;-73
2023/02/13 03:51:16;;;;;;;13.75;12.45;;;4.00;99.90;;;;;;5031932;28;20249;-73
2023/02/13 03:53:46;;;;;;;14.63;12.50;;;4.00;99.90;;;;;;5027301;28;20295;-72
2023/02/13 03:59:15;;;;;;;14.07;12.43;;;4.00;99.90;;;;;;5029348;28;21002;-72
2023/02/13 04:01:48;;;;;;;14.50;12.88;;;3.90;99.90;;;;;;5031467;28;20195;-73
2023/02/13 04:04:23;;;;;;;14.65;13.15;;;3.90;99.90;;;;;;5031108;28;20314;-73
2023/02/13 04:06:55;;;;;;;14.85;13.43;;;3.90;99.90;;;;;;5028004;28;20222;-73
2023/02/13 04:09:25;;;;;;;14.15;12.65;;;3.90;99.90;;;;;;5032327;28;20241;-73
2023/02/13 04:11:58;;;;;;;13.55;12.15;;;3.90;99.90;;;;;;5029753;28;20665;-73
2023/02/13 04:14:31;;;;;;;13.10;11.73;;;3.90;99.90;;;;;;5024452;28;20704;-72
2023/02/13 04:17:04;;;;;;;11.80;10.60;;;3.90;99.90;;;;;;5028367;28;20290;-73
2023/02/13 04:19:32;;;;;;;14.10;12.55;;;3.90;99.90;;;;;;5012694;28;20254;-73
2023/02/13 04:22:01;;;;;;;13.23;11.82;;;3.90;99.90;;;;;;5028085;28;20282;-74
2023/02/13 04:24:30;;;;;;;13.57;12.25;;;3.90;99.90;;;;;;5011811;28;20250;-73
2023/02/13 04:26:58;;;;;;;15.75;12.70;;;3.90;99.90;;;;;;5013088;28;20199;-74
2023/02/13 04:29:26;;;;;;;13.90;12.15;;;3.90;99.90;;;;;;5028481;28;20303;-74
2023/02/13 04:31:53;;;;;;;14.30;12.77;;;3.90;99.90;;;;;;5025472;28;20697;-74
2023/02/13 04:34:20;;;;;;;13.57;12.20;;;3.90;99.90;;;;;;5028376;28;20222;-73
2023/02/13 04:36:47;;;;;;;13.55;12.15;;;3.90;99.90;;;;;;5041033;28;20203;-72
2023/02/13 04:39:15;;;;;;;12.38;11.18;;;3.90;99.90;;;;;;5032764;28;20680;-73
2023/02/13 04:41:43;;;;;;;13.80;12.40;;;3.90;99.90;;;;;;5028367;28;20207;-74
2023/02/13 04:44:10;;;;;;;14.68;12.63;;;3.90;99.90;;;;;;5030747;28;20303;-75
2023/02/13 04:46:37;;;;;;;12.93;11.63;;;3.90;99.90;;;;;;5026597;28;20263;-75
2023/02/13 04:49:04;;;;;;;13.20;11.75;;;3.80;99.90;;;;;;5026867;28;20238;-75
2023/02/13 04:51:31;;;;;;;12.95;11.65;;;3.80;99.90;;;;;;5026856;28;20242;-75
2023/02/13 04:53:58;;;;;;;13.48;12.00;;;3.80;99.90;;;;;;5027544;28;20625;-74
2023/02/13 04:56:25;;;;;;;13.73;12.32;;;3.80;99.90;;;;;;5030449;28;20715;-74
2023/02/13 04:58:55;;;;;;;13.98;12.55;;;3.70;99.90;;;;;;5015213;28;20302;-73
2023/02/13 05:01:22;;;;;;;12.63;11.32;;;3.70;99.90;;;;;;5027096;28;20199;-73
2023/02/13 05:03:49;;;;;;;13.68;12.27;;;3.70;99.90;;;;;;5026278;28;20356;-74
2023/02/13 05:06:16;;;;;;;12.85;11.52;;;3.70;99.90;;;;;;5028396;28;20314;-74
2023/02/13 05:08:43;;;;;;;12.95;11.65;;;3.70;99.90;;;;;;5026223;28;20314;-75
2023/02/13 05:11:10;;;;;;;13.93;12.48;;;3.70;99.90;;;;;;5032954;28;20278;-74
2023/02/13 05:13:37;;;;;;;14.52;13.02;;;3.60;99.90;;;;;;5028082;28;21352;-74
2023/02/13 05:16:06;;;;;;;14.95;13.35;;;3.60;99.90;;;;;;5024431;28;20279;-74
2023/02/13 05:18:33;;;;;;;14.23;12.82;;;3.60;99.90;;;;;;5032122;28;20314;-74
2023/02/13 05:23:45;;;;;;;13.48;12.07;;;3.60;99.90;;;;;;5025837;28;20218;-74
2023/02/13 05:26:12;;;;;;;13.65;12.27;;;3.50;99.90;;;;;;5025303;28;20306;-74
2023/02/13 05:31:25;;;;;;;13.15;11.77;;;3.50;99.90;;;;;;5023205;28;20206;-74
2023/02/13 05:33:52;;;;;;;13.20;11.82;;;3.40;99.90;;;;;;5013161;28;20217;-73
2023/02/13 05:36:19;;;;;;;13.35;11.95;;;3.40;99.90;;;;;;5026149;28;20287;-73
2023/02/13 05:38:46;;;;;;;13.93;12.52;;;3.40;99.90;;;;;;5029517;28;20307;-73
2023/02/13 05:41:13;;;;;;;13.73;12.40;;;3.40;99.90;;;;;;5009277;28;20210;-71
2023/02/13 05:43:40;;;;;;;14.43;12.95;;;3.40;99.90;;;;;;5031070;28;20215;-71
2023/02/13 05:46:09;;;;;;;13.93;12.52;;;3.40;99.90;;;;;;5027023;28;20220;-73
2023/02/13 05:48:37;;;;;;;14.05;12.65;;;3.40;99.90;;;;;;5025563;28;20303;-71
2023/02/13 05:51:05;;;;;;;13.95;12.55;;;3.40;99.90;;;;;;5027603;28;20714;-72
2023/02/13 05:53:34;;;;;;;16.17;13.60;;;3.30;99.90;;;;;;5013846;28;20298;-72
2023/02/13 05:56:01;;;;;;;15.35;13.75;;;3.30;99.90;;;;;;5007460;28;20705;-72
2023/02/13 05:58:28;;;;;;;16.40;14.07;;;3.30;99.90;;;;;;5027009;28;20227;-71
2023/02/13 06:00:56;;;;;;;15.55;13.90;;;3.30;99.90;;;;;;5009399;28;20200;-72
2023/02/13 06:03:24;;;;;;;15.30;13.68;;;3.20;99.90;;;;;;5028589;28;20203;-72
2023/02/13 06:05:52;;;;;;;15.30;13.43;;;3.20;99.90;;;;;;5025948;28;20224;-72
2023/02/13 06:08:20;;;;;;;15.15;13.55;;;3.20;99.90;;;;;;5027273;28;20870;-73
2023/02/13 06:10:47;;;;;;;13.93;12.60;;;3.20;99.90;;;;;;5030702;28;20218;-73
2023/02/13 06:13:15;;;;;;;14.70;12.48;;;3.20;99.90;;;;;;5026922;28;20295;-73
2023/02/13 06:15:42;;;;;;;14.10;12.70;;;3.20;99.90;;;;;;5030349;28;20279;-72
2023/02/13 06:18:09;;;;;;;14.18;12.70;;;3.10;99.90;;;;;;5033153;28;20226;-74
2023/02/13 06:20:37;;;;;;;13.07;11.75;;;3.10;99.90;;;;;;5031105;28;20349;-74
2023/02/13 06:23:06;;;;;;;13.77;12.05;;;3.10;99.90;;;;;;5029248;28;20223;-73
2023/02/13 06:25:34;;;;;;;12.38;11.18;;;3.20;99.90;;;;;;5028598;28;20302;-73
2023/02/13 06:28:01;;;;;;;12.48;11.27;;;3.30;99.90;;;;;;5026790;28;20333;-75
2023/02/13 06:30:28;;;;;;;12.70;11.40;;;3.40;99.90;;;;;;5027198;28;20319;-73
2023/02/13 06:32:56;;;;;;;13.57;12.18;;;3.40;99.90;;;;;;5017904;28;20290;-73
2023/02/13 06:35:23;;;;;;;13.75;12.35;;;3.30;99.90;;;;;;5035756;28;20691;-73
2023/02/13 06:37:50;;;;;;;12.38;11.18;;;3.30;99.90;;;;;;5033619;28;20289;-73
2023/02/13 06:40:19;;;;;;;14.63;11.95;;;3.30;99.90;;;;;;5037065;28;20306;-73
2023/02/13 06:42:46;;;;;;;12.95;11.45;;;3.30;99.90;;;;;;5026690;28;20232;-72
2023/02/13 06:45:14;;;;;;;13.25;11.95;;;3.20;99.90;;;;;;5007110;28;20695;-74
2023/02/13 06:47:42;;;;;;;15.38;13.60;;;3.20;99.90;;;;;;5011671;28;20628;-72
2023/02/13 06:50:11;;;;;;;11.95;10.75;;;3.20;99.90;;;;;;5028624;28;20399;-72
2023/02/13 06:52:38;;;;;;;12.20;11.07;;;3.20;99.90;;;;;;5011522;28;20219;-72
2023/02/13 06:55:06;;;;;;;11.80;10.60;;;3.20;99.90;;;;;;5012161;28;20216;-72
2023/02/13 06:57:35;;;;;;;11.70;10.60;;;3.20;99.90;;;;;;5026333;28;20292;-73
2023/02/13 07:00:04;;;;;;;11.88;10.73;;;3.10;99.90;;;;;;5028467;28;20303;-73
2023/02/13 07:02:32;;;;;;;11.73;10.55;;;3.20;99.90;;;;;;5026929;28;20200;-73
2023/02/13 07:04:59;;;;;;;12.15;10.98;;;3.20;99.90;;;;;;5026704;28;20254;-73
2023/02/13 07:07:26;;;;;;;13.32;11.93;;;3.20;99.90;;;;;;5013117;28;20632;-73
2023/02/13 07:09:53;;;;;;;12.38;11.05;;;3.20;99.90;;;;;;5023830;28;20299;-72
2023/02/13 07:12:20;;;;;;;11.48;10.43;;;3.30;99.90;;;;;;5033010;28;20711;-73
2023/02/13 07:15:00;;;;;;;11.48;10.38;;;3.30;99.90;;;;;;5025992;28;20227;-71
2023/02/13 07:17:27;;;;;;;11.68;10.57;;;3.40;99.90;;;;;;5032968;28;20278;-73
2023/02/13 07:19:54;;;;;;;11.55;10.35;;;3.40;99.90;;;;;;5027399;28;20314;-72
2023/02/13 07:22:21;;;;;;;13.32;11.93;;;3.50;99.90;;;;;;5028840;28;20299;-73
2023/02/13 07:24:48;;;;;;;12.40;10.98;;;3.50;99.90;;;;;;5027019;28;21124;-72
2023/02/13 07:27:15;;;;;;;11.95;10.82;;;3.60;99.90;;;;;;5027102;28;20219;-72
2023/02/13 07:29:42;;;;;;;11.73;10.60;;;3.60;99.90;;;;;;5029390;28;20348;-73
2023/02/13 07:32:10;;;;;;;10.75;9.73;;;3.60;99.90;;;;;;5026563;28;20295;-73
2023/02/13 07:34:37;;;;;;;11.98;10.77;;;3.80;99.90;;;;;;5026328;28;20211;-73
2023/02/13 07:37:04;;;;;;;12.65;10.48;;;4.60;99.90;;;;;;5027708;28;20323;-73
2023/02/13 07:39:32;;;;;;;12.05;10.70;;;5.40;99.90;;;;;;5025792;28;20254;-72
2023/02/13 07:41:59;;;;;;;10.57;9.57;;;6.30;99.90;;;;;;5013977;28;20310;-73
2023/02/13 07:44:26;;;;;;;13.18;10.70;;;7.00;99.90;;;;;;5028982;28;20289;-73
2023/02/13 07:46:53;;;;;;;11.25;10.15;;;7.70;99.90;;;;;;5010241;28;20676;-72
2023/02/13 07:49:21;;;;;;;10.75;9.63;;;8.30;99.90;;;;;;5020313;28;20314;-73
2023/02/13 07:51:49;;;;;;;12.40;11.10;;;8.90;99.90;;;;;;5012167;28;20195;-73
2023/02/13 07:54:16;;;;;;;10.18;9.18;;;9.30;99.90;;;;;;5023191;28;21050;-70
2023/02/13 07:56:43;;;;;;;11.40;10.30;;;9.70;99.90;;;;;;5024236;28;20291;-73
2023/02/13 07:59:11;;;;;;;13.02;11.63;;;10.10;99.90;;;;;;5029535;28;20802;-72
2023/02/13 08:01:38;;;;;;;13.98;11.65;;;10.60;99.90;;;;;;5023586;28;20291;-72
2023/02/13 08:04:05;;;;;;;14.07;12.25;;;10.90;99.90;;;;;;5023848;28;20794;-72
2023/02/13 08:06:33;;;;;;;13.48;12.07;;;11.10;99.90;;;;;;5022941;28;20306;-71
2023/02/13 08:11:54;;;;;;;13.55;12.15;;;11.40;99.90;;;;;;5026599;28;20666;-71
2023/02/13 08:14:21;;;;;;;13.95;11.55;;;11.50;99.90;;;;;;5026322;28;20239;-72
2023/02/13 08:16:48;;;;;;;11.93;10.73;;;11.90;99.90;;;;;;5024722;28;20283;-73
2023/02/13 08:19:15;;;;;;;10.52;9.52;;;12.10;99.90;;;;;;5024769;28;20310;-73
2023/02/13 08:21:44;;;;;;;10.32;9.32;;;12.30;99.90;;;;;;5024930;28;20291;-72
2023/02/13 08:24:12;;;;;;;11.93;9.38;;;12.40;99.90;;;;;;5020479;28;20303;-72
2023/02/13 08:26:39;;;;;;;9.90;9.05;;;12.40;99.90;;;;;;5022486;28;20314;-72
2023/02/13 08:29:09;;;;;;;9.82;8.88;;;12.40;99.70;;;;;;5010087;28;20318;-71
2023/02/13 08:31:36;;;;;;;11.05;9.75;;;12.50;99.80;;;;;;5009200;28;20206;-74
2023/02/13 08:34:05;;;;;;;10.55;9.52;;;12.60;99.20;;;;;;5025572;28;20876;-74
2023/02/13 08:36:32;;;;;;;9.70;8.73;;;12.70;98.80;;;;;;5028256;28;20219;-73
2023/02/13 08:39:00;;;;;;;9.70;8.70;;;12.70;98.70;;;;;;5009396;28;20674;-72
2023/02/13 08:41:27;;;;;;;10.45;9.00;;;12.70;98.00;;;;;;5026853;28;20614;-72
2023/02/13 08:43:55;;;;;;;10.35;9.07;;;12.80;97.80;;;;;;5027636;28;20302;-72
2023/02/13 08:46:22;;;;;;;9.75;8.80;;;12.80;97.80;;;;;;5027688;28;20226;-72
2023/02/13 08:48:50;;;;;;;9.23;8.30;;;12.80;98.00;;;;;;5024987;28;20346;-72
2023/02/13 08:51:17;;;;;;;9.45;8.55;;;12.80;97.90;;;;;;5024739;28;21171;-72
2023/02/13 08:53:44;;;;;;;10.02;8.90;;;13.10;97.70;;;;;;5025986;28;20302;-73
2023/02/13 08:56:12;;;;;;;10.77;9.68;;;13.30;97.50;;;;;;5002095;28;20292;-73
2023/02/13 08:58:39;;;;;;;9.98;9.07;;;13.40;97.10;;;;;;5004704;28;20700;-71
2023/02/13 09:01:07;;;;;;;10.63;9.63;;;13.40;96.80;;;;;;5021414;28;20287;-73
2023/02/13 09:03:35;;;;;;;9.88;8.68;;;13.60;96.70;;;;;;5022403;28;20254;-73
2023/02/13 09:06:03;;;;;;;10.23;9.30;;;13.50;96.40;;;;;;5007878;28;20286;-73
2023/02/13 09:08:30;;;;;;;11.25;10.05;;;13.80;96.50;;;;;;5024668;28;20303;-72
2023/02/13 09:11:00;;;;;;;11.68;10.30;;;13.70;96.30;;;;;;5023935;28;20226;-73
2023/02/13 09:13:31;;;;;;;10.85;9.75;;;13.80;96.30;;;;;;4989523;28;20878;-73
2023/02/13 09:16:00;;;;;;;10.45;9.48;;;14.00;96.00;;;;;;5025993;28;20290;-73
2023/02/13 09:18:28;;;;;;;9.77;8.77;;;14.20;95.70;;;;;;5020998;28;20219;-73
2023/02/13 09:21:00;;;;;;;9.85;8.85;;;14.60;94.90;;;;;;5025330;28;20303;-74
2023/02/13 09:23:27;;;;;;;9.68;8.77;;;14.40;94.40;;;;;;5024440;28;20436;-74
2023/02/13 09:25:54;;;;;;;8.80;8.00;;;14.40;94.20;;;;;;5018428;28;20811;-74
2023/02/13 09:28:21;;;;;;;9.10;8.30;;;14.10;94.20;;;;;;5007166;28;20220;-77
2023/02/13 09:30:49;;;;;;;8.80;7.90;;;13.90;94.20;;;;;;5024533;28;20287;-74
2023/02/13 09:33:16;;;;;;;8.88;7.97;;;13.90;94.10;;;;;;5019603;28;20287;-74
2023/02/13 09:35:43;;;;;;;8.57;7.68;;;13.60;94.30;;;;;;5021904;28;20639;-72
2023/02/13 09:38:11;;;;;;;8.25;7.45;;;13.70;94.50;;;;;;5001256;28;20715;-73
2023/02/13 09:40:45;;;;;;;8.55;7.72;;;14.00;94.60;;;;;;5021830;28;20211;-75
2023/02/13 09:43:15;;;;;;;7.55;6.63;;;14.40;94.10;;;;;;5022748;28;20904;-75
2023/02/13 09:45:44;;;;;;;9.13;8.18;;;14.60;93.70;;;;;;5026349;28;20760;-75
2023/02/13 09:48:18;;;;;;;9.40;8.50;;;14.50;93.60;;;;;;5027187;28;20310;-75
2023/02/13 09:50:45;;;;;;;9.05;7.35;;;14.40;93.30;;;;;;5027173;28;20281;-74
2023/02/13 09:53:21;;;;;;;9.82;8.48;;;14.50;93.60;;;;;;5033463;28;20644;-74
2023/02/13 09:55:56;;;;;;;11.10;8.65;;;14.10;93.40;;;;;;5023219;28;20680;-75
2023/02/13 09:58:37;;;;;;;8.38;7.50;;;13.90;94.00;;;;;;5011056;28;20215;-75
2023/02/13 10:01:12;;;;;;;7.75;7.03;;;14.10;93.80;;;;;;5027556;28;20224;-75
2023/02/13 10:03:47;;;;;;;8.75;7.95;;;14.20;93.60;;;;;;5021146;28;20314;-74
2023/02/13 10:06:22;;;;;;;8.57;7.72;;;14.30;93.40;;;;;;5030216;28;20683;-74
2023/02/13 10:09:03;;;;;;;8.15;7.38;;;14.40;93.20;;;;;;5009327;28;20254;-73
2023/02/13 10:12:00;;;;;;;8.48;7.63;;;14.20;92.90;;;;;;5024297;28;20322;-75
2023/02/13 10:14:32;;;;;;;8.48;7.63;;;14.40;93.00;;;;;;5005975;28;20228;-77
2023/02/13 10:17:04;;;;;;;8.40;7.60;;;14.60;92.70;;;;;;5029754;28;20199;-77
2023/02/13 10:19:39;;;;;;;11.32;9.00;;;14.80;92.40;;;;;;5025569;28;20318;-75
2023/02/13 10:22:11;;;;;;;9.85;8.27;;;14.80;92.20;;;;;;5026148;28;20281;-77
2023/02/13 10:24:42;;;;;;;8.95;8.05;;;14.90;91.90;;;;;;5025606;28;20331;-77
2023/02/13 10:27:20;;;;;;;9.45;8.43;;;15.00;92.20;;;;;;5032701;28;20421;-77
2023/02/13 10:30:05;;;;;;;9.55;8.15;;;15.10;91.90;;;;;;5032136;28;20251;-78
2023/02/13 10:32:42;;;;;;;8.38;7.47;;;15.40;91.60;;;;;;5026748;28;20204;-73
2023/02/13 10:35:20;;;;;;;11.50;8.18;;;15.10;91.30;;;;;;5008472;28;20314;-77
2023/02/13 10:37:50;;;;;;;9.43;8.52;;;15.30;91.40;;;;;;5027723;28;20553;-75
2023/02/13 10:40:18;;;;;;;11.98;8.35;;;15.40;91.30;;;;;;5022979;28;20227;-76
2023/02/13 10:42:49;;;;;;;12.50;8.27;;;15.40;90.80;;;;;;5027717;28;20282;-76
2023/02/13 10:45:33;;;;;;;8.98;8.10;;;14.90;91.00;;;;;;5024880;28;20251;-77
2023/02/13 10:48:18;;;;;;;9.00;8.10;;;14.70;91.00;;;;;;5029481;28;20374;-76
2023/02/13 10:50:56;;;;;;;8.98;8.07;;;14.70;91.40;;;;;;5023470;28;20244;-75
2023/02/13 10:53:34;;;;;;;13.40;8.30;;;14.30;91.70;;;;;;5024061;28;20735;-75
2023/02/13 10:56:20;;;;;;;9.32;8.43;;;14.20;92.20;;;;;;5021513;28;20290;-76
2023/02/13 10:59:23;;;;;;;9.15;8.25;;;14.20;92.30;;;;;;5021465;28;20310;-76
2023/02/13 11:01:56;;;;;;;8.32;7.45;;;14.70;91.70;;;;;;5010014;28;20750;-75
2023/02/13 11:04:24;;;;;;;8.73;7.82;;;14.90;91.00;;;;;;5026660;28;20668;-75
2023/02/13 11:06:57;;;;;;;8.23;7.38;;;15.10;91.30;;;;;;5006805;28;20385;-77
2023/02/13 11:09:25;;;;;;;8.63;7.72;;;15.30;90.80;;;;;;5023940;28;20286;-77
2023/02/13 11:11:52;;;;;;;9.00;7.47;;;15.40;90.50;;;;;;5020116;28;20282;-76
2023/02/13 11:14:22;;;;;;;9.18;7.95;;;15.40;90.20;;;;;;5021938;28;20311;-77
2023/02/13 11:16:54;;;;;;;8.52;7.47;;;15.40;90.30;;;;;;5023580;28;20299;-76
2023/02/13 11:19:26;;;;;;;7.55;6.75;;;15.00;91.10;;;;;;4995574;28;20322;-77
2023/02/13 11:21:58;;;;;;;13.02;8.30;;;15.00;90.70;;;;;;5026763;28;20203;-77
2023/02/13 11:24:27;;;;;;;8.98;8.05;;;14.80;90.80;;;;;;5024080;28;20255;-77
2023/02/13 11:26:58;;;;;;;9.10;8.20;;;14.50;90.70;;;;;;5030034;28;20314;-77
2023/02/13 11:29:29;;;;;;;10.10;7.97;;;14.30;91.00;;;;;;5024104;28;20341;-77
2023/02/13 11:32:16;;;;;;;9.45;8.55;;;14.40;91.10;;;;;;5026121;28;20291;-77
2023/02/13 11:34:44;;;;;;;8.27;7.20;;;14.20;91.10;;;;;;5012024;28;20658;-77
2023/02/13 11:37:22;;;;;;;10.68;8.02;;;14.30;91.60;;;;;;5023803;28;20199;-76
2023/02/13 11:39:51;;;;;;;9.88;8.63;;;14.50;91.50;;;;;;4993558;28;20261;-75
2023/02/13 11:42:24;;;;;;;8.93;8.00;;;14.50;91.20;;;;;;5028076;28;20230;-76
2023/02/13 11:44:54;;;;;;;10.73;8.70;;;14.30;91.40;;;;;;5019270;28;20315;-75
2023/02/13 11:47:39;;;;;;;8.93;8.13;;;14.50;91.30;;;;;;5024398;28;20394;-75
2023/02/13 11:50:23;;;;;;;8.65;7.88;;;14.60;90.80;;;;;;5025209;28;20223;-75
2023/02/13 11:52:58;;;;;;;8.90;7.78;;;15.00;90.70;;;;;;5019428;28;20296;-75
2023/02/13 11:55:29;;;;;;;8.45;7.65;;;15.10;90.10;;;;;;5008635;28;20302;-75
2023/02/13 11:57:59;;;;;;;8.85;7.95;;;15.10;90.10;;;;;;5022438;28;20307;-74
2023/02/13 12:00:32;;;;;;;9.35;8.35;;;15.40;90.00;;;;;;5023417;28;20254;-74
2023/02/13 12:02:59;;;;;;;8.95;8.07;;;15.20;89.80;;;;;;5024060;28;20219;-75
2023/02/13 12:05:28;;;;;;;8.90;7.72;;;15.00;90.10;;;;;;5026920;28;20314;-74
2023/02/13 12:08:01;;;;;;;9.20;8.30;;;15.20;90.00;;;;;;5011005;28;20294;-74
2023/02/13 12:10:29;;;;;;;8.38;7.57;;;15.40;88.80;;;;;;5010573;28;20807;-74
2023/02/13 12:12:59;;;;;;;10.10;8.68;;;15.40;89.00;;;;;;5025981;28;20294;-74
2023/02/13 12:15:28;;;;;;;8.98;8.07;;;15.40;89.00;;;;;;5023377;28;20251;-74
2023/02/13 12:18:06;;;;;;;9.32;8.27;;;15.40;88.90;;;;;;5024466;28;20208;-74
2023/02/13 12:20:44;;;;;;;9.32;8.43;;;15.20;88.40;;;;;;5024497;28;20302;-72
2023/02/13 12:23:23;;;;;;;10.15;8.98;;;15.10;88.80;;;;;;5002264;28;20200;-75
2023/02/13 12:26:02;;;;;;;9.93;8.45;;;15.00;88.80;;;;;;5026648;28;20278;-75
2023/02/13 12:28:45;;;;;;;10.82;9.68;;;15.20;90.00;;;;;;4989819;28;20372;-76
2023/02/13 12:31:34;;;;;;;11.35;9.38;;;15.10;88.70;;;;;;5026044;28;20238;-76
2023/02/13 12:34:45;;;;;;;10.73;9.73;;;14.90;88.80;;;;;;5003184;28;20234;-76
2023/02/13 12:37:21;;;;;;;10.65;9.65;;;14.90;88.40;;;;;;5024906;28;20227;-76
2023/02/13 12:40:02;;;;;;;10.57;9.57;;;14.70;89.00;;;;;;5019784;28;20257;-76
2023/02/13 12:42:42;;;;;;;10.50;9.50;;;14.40;88.70;;;;;;5008109;28;20292;-77
2023/02/13 12:45:23;;;;;;;9.77;8.77;;;14.60;90.10;;;;;;5024692;28;20289;-77
2023/02/13 12:48:19;;;;;;;9.73;8.73;;;14.70;90.10;;;;;;5025319;28;20294;-76
2023/02/13 12:51:01;;;;;;;11.13;9.60;;;14.70;90.40;;;;;;5022019;28;20298;-76
2023/02/13 12:53:49;;;;;;;11.13;10.02;;;14.90;89.90;;;;;;5006554;28;20330;-77
2023/02/13 12:56:30;;;;;;;11.48;10.30;;;14.90;89.90;;;;;;5026931;28;20257;-77
2023/02/13 12:59:07;;;;;;;11.10;10.00;;;14.80;90.20;;;;;;5027403;28;20254;-76
2023/02/13 13:01:59;;;;;;;10.80;9.65;;;14.60;90.50;;;;;;5025545;28;20230;-77
2023/02/13 13:04:39;;;;;;;10.52;9.38;;;14.50;90.10;;;;;;5002664;28;20263;-77
2023/02/13 13:07:26;;;;;;;12.25;10.95;;;14.40;90.30;;;;;;5024498;28;20266;-77
2023/02/13 13:10:10;;;;;;;11.30;10.15;;;14.30;90.00;;;;;;5019687;28;20533;-77
2023/02/13 13:12:58;;;;;;;11.05;9.95;;;14.20;90.40;;;;;;5024002;28;20286;-75
2023/02/13 13:15:32;;;;;;;11.90;10.48;;;14.20;90.80;;;;;;5022044;28;20302;-77
2023/02/13 13:18:08;;;;;;;11.90;10.65;;;14.40;90.50;;;;;;5006437;28;20215;-75
2023/02/13 13:20:50;;;;;;;10.82;9.73;;;14.40;90.30;;;;;;5026050;28;20301;-76
2023/02/13 13:23:20;;;;;;;10.95;9.82;;;14.50;90.20;;;;;;5024174;28;20218;-75
2023/02/13 13:25:57;;;;;;;12.00;10.05;;;14.70;90.40;;;;;;5027241;28;20290;-75
2023/02/13 13:28:32;;;;;;;12.57;10.35;;;14.60;90.20;;;;;;5010233;28;20226;-75
2023/02/13 13:31:00;;;;;;;11.55;10.45;;;14.50;90.50;;;;;;5009533;28;20199;-78
2023/02/13 13:33:28;;;;;;;12.45;11.02;;;14.50;90.40;;;;;;5025575;28;20219;-76
2023/02/13 13:36:02;;;;;;;11.52;10.32;;;14.70;90.40;;;;;;5013097;28;20200;-76
2023/02/13 13:38:41;;;;;;;12.18;10.98;;;14.70;90.10;;;;;;5023715;28;20370;-76
2023/02/13 13:41:14;;;;;;;12.50;11.20;;;14.80;90.30;;;;;;5028042;28;20727;-76
2023/02/13 13:43:59;;;;;;;12.10;10.48;;;14.80;89.70;;;;;;5027782;28;20227;-76